createdAt,value
2019-04-06T00:00:11.946Z,11.90
2019-04-06T00:01:11.942Z,11.88
2019-04-06T00:02:11.964Z,12.03
2019-04-06T00:03:11.916Z,11.91
2019-04-06T00:04:11.899Z,12.02
2019-04-06T00:05:11.888Z,11.91
2019-04-06T00:06:11.883Z,11.90
2019-04-06T00:07:11.878Z,11.88
2019-04-06T00:08:11.938Z,11.90
2019-04-06T00:09:11.843Z,11.90
2019-04-06T00:10:11.837Z,11.97
2019-04-06T00:11:11.818Z,11.91
2019-04-06T00:12:11.829Z,11.88
2019-04-06T00:13:11.857Z,11.99
2019-04-06T00:14:11.806Z,11.91
2019-04-06T00:15:11.779Z,11.99
2019-04-06T00:16:11.770Z,12.02
2019-04-06T00:17:11.759Z,11.90
2019-04-06T00:18:11.825Z,11.90
2019-04-06T00:19:11.744Z,11.84
2019-04-06T00:20:11.724Z,11.86
2019-04-06T00:21:11.716Z,11.81
2019-04-06T00:22:11.706Z,11.83
2019-04-06T00:23:11.694Z,11.80
2019-04-06T00:24:11.728Z,11.78
2019-04-06T00:25:11.667Z,11.73
2019-04-06T00:26:11.668Z,11.78
2019-04-06T00:27:11.658Z,11.75
2019-04-06T00:28:11.631Z,11.83
2019-04-06T00:29:11.668Z,11.81
2019-04-06T00:30:11.616Z,11.91
2019-04-06T00:31:11.683Z,11.81
2019-04-06T00:32:11.587Z,11.84
2019-04-06T00:33:11.579Z,11.84
2019-04-06T00:34:11.601Z,11.83
2019-04-06T00:35:11.587Z,11.81
2019-04-06T00:36:11.600Z,11.86
2019-04-06T00:37:11.600Z,11.88
2019-04-06T00:38:11.577Z,11.78
2019-04-06T00:39:11.518Z,11.86
2019-04-06T00:40:11.498Z,11.84
2019-04-06T00:41:11.571Z,11.80
2019-04-06T00:42:11.546Z,11.78
2019-04-06T00:43:11.471Z,11.78
2019-04-06T00:44:11.459Z,11.80
2019-04-06T00:45:11.450Z,11.72
2019-04-06T00:46:11.441Z,11.69
2019-04-06T00:47:11.441Z,11.77
2019-04-06T00:48:11.479Z,11.80
2019-04-06T00:49:11.398Z,11.77
2019-04-06T00:50:11.386Z,11.73
2019-04-06T00:51:11.394Z,11.73
2019-04-06T00:52:11.365Z,11.77
2019-04-06T00:53:11.477Z,11.80
2019-04-06T00:54:11.385Z,11.77
2019-04-06T00:55:11.343Z,11.72
2019-04-06T00:56:11.393Z,11.78
2019-04-06T00:57:11.349Z,11.78
2019-04-06T00:58:11.361Z,11.84
2019-04-06T00:59:11.298Z,11.83
2019-04-06T01:00:11.275Z,11.86
2019-04-06T01:01:11.261Z,11.84
2019-04-06T01:02:11.265Z,11.88
2019-04-06T01:03:11.251Z,11.84
2019-04-06T01:04:11.286Z,11.88
2019-04-06T01:05:11.232Z,11.86
2019-04-06T01:06:11.241Z,11.84
2019-04-06T01:07:11.227Z,11.87
2019-04-06T01:08:11.193Z,11.86
2019-04-06T01:09:11.181Z,11.83
2019-04-06T01:10:11.238Z,11.91
2019-04-06T01:11:11.230Z,11.87
2019-04-06T01:12:11.158Z,11.90
2019-04-06T01:13:11.146Z,11.84
2019-04-06T01:14:11.169Z,11.91
2019-04-06T01:15:11.212Z,11.87
2019-04-06T01:16:11.111Z,11.87
2019-04-06T01:17:11.116Z,11.86
2019-04-06T01:18:11.077Z,11.88
2019-04-06T01:19:11.068Z,11.94
2019-04-06T01:20:11.057Z,11.90
2019-04-06T01:21:11.087Z,11.90
2019-04-06T01:22:11.032Z,11.80
2019-04-06T01:23:11.035Z,11.94
2019-04-06T01:24:11.009Z,11.87
2019-04-06T01:25:10.998Z,11.88
2019-04-06T01:26:11.032Z,11.94
2019-04-06T01:27:11.036Z,11.86
2019-04-06T01:28:10.970Z,11.84
2019-04-06T01:29:10.946Z,11.81
2019-04-06T01:30:11.076Z,11.77
2019-04-06T01:31:10.926Z,11.77
2019-04-06T01:32:10.968Z,11.77
2019-04-06T01:33:10.905Z,11.78
2019-04-06T01:34:10.927Z,11.73
2019-04-06T01:35:10.878Z,11.69
2019-04-06T01:36:14.076Z,11.69
2019-04-06T01:37:10.864Z,11.66
2019-04-06T01:38:10.903Z,11.70
2019-04-06T01:39:10.834Z,11.72
2019-04-06T01:40:10.881Z,11.69
2019-04-06T01:41:10.881Z,11.69
2019-04-06T01:42:10.806Z,11.72
2019-04-06T01:43:10.972Z,11.68
2019-04-06T01:44:10.784Z,11.73
2019-04-06T01:45:10.869Z,11.66
2019-04-06T01:46:10.754Z,11.65
2019-04-06T01:47:10.797Z,11.65
2019-04-06T01:48:10.739Z,11.69
2019-04-06T01:49:10.724Z,11.66
2019-04-06T01:50:10.714Z,11.62
2019-04-06T01:51:10.705Z,11.65
2019-04-06T01:52:10.704Z,11.65
2019-04-06T01:53:10.733Z,11.63
2019-04-06T01:54:10.675Z,11.68
2019-04-06T01:55:10.699Z,11.65
2019-04-06T01:56:18.291Z,11.55
2019-04-06T01:57:11.655Z,11.51
2019-04-06T01:58:10.705Z,11.51
2019-04-06T01:59:10.612Z,11.44
2019-04-06T02:00:10.602Z,11.48
2019-04-06T02:01:10.590Z,11.40
2019-04-06T02:02:10.582Z,11.33
2019-04-06T02:03:10.571Z,11.41
2019-04-06T02:04:10.598Z,11.43
2019-04-06T02:05:10.548Z,11.35
2019-04-06T02:06:10.558Z,11.27
2019-04-06T02:07:10.533Z,11.26
2019-04-06T02:08:10.521Z,11.30
2019-04-06T02:09:10.522Z,11.32
2019-04-06T02:10:10.541Z,11.27
2019-04-06T02:11:10.480Z,11.26
2019-04-06T02:12:10.477Z,11.11
2019-04-06T02:13:10.466Z,11.19
2019-04-06T02:14:10.540Z,11.18
2019-04-06T02:15:10.441Z,11.15
2019-04-06T02:16:10.440Z,11.11
2019-04-06T02:17:10.414Z,11.08
2019-04-06T02:18:10.477Z,11.11
2019-04-06T02:19:10.474Z,11.07
2019-04-06T02:20:10.386Z,11.05
2019-04-06T02:21:10.387Z,11.07
2019-04-06T02:22:10.358Z,10.99
2019-04-06T02:23:10.350Z,11.07
2019-04-06T02:24:10.337Z,11.10
2019-04-06T02:25:10.401Z,11.00
2019-04-06T02:26:10.314Z,11.02
2019-04-06T02:27:10.314Z,11.08
2019-04-06T02:28:10.392Z,11.10
2019-04-06T02:29:10.376Z,10.97
2019-04-06T02:30:10.334Z,11.00
2019-04-06T02:31:10.272Z,10.92
2019-04-06T02:32:10.247Z,10.86
2019-04-06T02:33:10.766Z,10.90
2019-04-06T02:34:10.229Z,10.75
2019-04-06T02:35:10.268Z,10.76
2019-04-06T02:36:10.235Z,10.79
2019-04-06T02:37:10.299Z,10.76
2019-04-06T02:38:10.256Z,10.79
2019-04-06T02:39:10.248Z,10.79
2019-04-06T02:40:10.166Z,10.75
2019-04-06T02:41:10.173Z,10.81
2019-04-06T02:42:10.215Z,10.75
2019-04-06T02:43:10.142Z,10.78
2019-04-06T02:44:10.128Z,10.79
2019-04-06T02:45:10.325Z,10.76
2019-04-06T02:46:10.164Z,10.81
2019-04-06T02:47:10.096Z,10.76
2019-04-06T02:48:10.084Z,10.90
2019-04-06T02:49:10.062Z,10.81
2019-04-06T02:50:10.132Z,10.78
2019-04-06T02:51:10.044Z,10.78
2019-04-06T02:52:10.065Z,10.71
2019-04-06T02:53:10.026Z,10.72
2019-04-06T02:54:10.027Z,10.67
2019-04-06T02:55:10.007Z,10.69
2019-04-06T02:56:10.088Z,10.71
2019-04-06T02:57:10.237Z,10.69
2019-04-06T02:58:09.987Z,10.61
2019-04-06T02:59:09.948Z,10.63
2019-04-06T03:00:09.947Z,10.72
2019-04-06T03:01:10.001Z,10.71
2019-04-06T03:02:09.917Z,10.60
2019-04-06T03:03:09.911Z,10.64
2019-04-06T03:04:10.122Z,10.60
2019-04-06T03:05:09.924Z,10.59
2019-04-06T03:06:09.876Z,10.44
2019-04-06T03:07:09.929Z,10.46
2019-04-06T03:08:09.905Z,10.54
2019-04-06T03:09:11.637Z,10.51
2019-04-06T03:10:09.831Z,10.51
2019-04-06T03:11:09.845Z,10.53
2019-04-06T03:12:09.814Z,10.59
2019-04-06T03:13:09.853Z,10.59
2019-04-06T03:14:09.852Z,10.63
2019-04-06T03:15:09.811Z,10.59
2019-04-06T03:16:09.759Z,10.59
2019-04-06T03:17:09.773Z,10.59
2019-04-06T03:18:09.750Z,10.59
2019-04-06T03:19:09.783Z,10.56
2019-04-06T03:20:09.714Z,10.61
2019-04-06T03:21:09.711Z,10.59
2019-04-06T03:22:09.693Z,10.59
2019-04-06T03:23:09.709Z,10.68
2019-04-06T03:24:09.729Z,10.63
2019-04-06T03:25:09.660Z,10.57
2019-04-06T03:26:09.701Z,10.56
2019-04-06T03:27:09.778Z,10.48
2019-04-06T03:28:09.641Z,10.49
2019-04-06T03:29:09.618Z,10.56
2019-04-06T03:30:09.628Z,10.51
2019-04-06T03:31:10.347Z,10.49
2019-04-06T03:32:09.590Z,10.51
2019-04-06T03:33:09.580Z,10.48
2019-04-06T03:34:09.799Z,10.57
2019-04-06T03:35:09.822Z,10.60
2019-04-06T03:36:09.566Z,10.64
2019-04-06T03:37:09.626Z,10.57
2019-04-06T03:38:09.525Z,10.63
2019-04-06T03:39:09.525Z,10.64
2019-04-06T03:40:09.492Z,10.59
2019-04-06T03:41:09.619Z,10.59
2019-04-06T03:42:11.190Z,10.46
2019-04-06T03:43:09.513Z,10.46
2019-04-06T03:44:09.445Z,10.38
2019-04-06T03:45:09.543Z,10.40
2019-04-06T03:46:09.432Z,10.35
2019-04-06T03:47:09.426Z,10.25
2019-04-06T03:48:09.492Z,10.30
2019-04-06T03:49:09.562Z,10.30
2019-04-06T03:50:09.385Z,10.30
2019-04-06T03:51:09.856Z,10.22
2019-04-06T03:52:09.588Z,10.31
2019-04-06T03:53:09.417Z,10.26
2019-04-06T03:54:09.357Z,10.17
2019-04-06T03:55:09.399Z,10.23
2019-04-06T03:56:09.533Z,10.23
2019-04-06T03:57:15.941Z,10.12
2019-04-06T03:58:10.339Z,10.15
2019-04-06T03:59:09.305Z,10.10
2019-04-06T04:00:09.544Z,10.05
2019-04-06T04:01:09.268Z,10.07
2019-04-06T04:02:09.261Z,10.07
2019-04-06T04:03:09.306Z,10.10
2019-04-06T04:04:09.307Z,10.15
2019-04-06T04:05:09.532Z,10.17
2019-04-06T04:06:09.671Z,10.16
2019-04-06T04:07:09.256Z,10.23
2019-04-06T04:08:09.193Z,10.31
2019-04-06T04:09:09.193Z,10.33
2019-04-06T04:10:09.386Z,10.37
2019-04-06T04:11:09.151Z,10.35
2019-04-06T04:12:09.161Z,10.30
2019-04-06T04:13:09.190Z,10.37
2019-04-06T04:14:09.134Z,10.48
2019-04-06T04:15:09.113Z,10.53
2019-04-06T04:16:09.099Z,10.40
2019-04-06T04:17:09.307Z,10.44
2019-04-06T04:18:09.118Z,10.48
2019-04-06T04:19:09.070Z,10.48
2019-04-06T04:20:09.051Z,10.51
2019-04-06T04:21:09.077Z,10.44
2019-04-06T04:22:09.201Z,10.59
2019-04-06T04:23:09.021Z,10.61
2019-04-06T04:24:09.065Z,10.64
2019-04-06T04:25:09.308Z,10.60
2019-04-06T04:26:08.990Z,10.60
2019-04-06T04:27:08.996Z,10.54
2019-04-06T04:28:08.974Z,10.56
2019-04-06T04:29:09.128Z,10.51
2019-04-06T04:30:09.034Z,10.48
2019-04-06T04:31:08.939Z,10.46
2019-04-06T04:32:09.190Z,10.49
2019-04-06T04:33:08.917Z,10.46
2019-04-06T04:34:09.061Z,10.51
2019-04-06T04:35:08.892Z,10.48
2019-04-06T04:36:09.173Z,10.56
2019-04-06T04:37:23.564Z,10.54
2019-04-06T04:38:08.854Z,10.51
2019-04-06T04:39:09.067Z,10.46
2019-04-06T04:40:08.838Z,10.46
2019-04-06T04:41:08.918Z,10.51
2019-04-06T04:42:08.810Z,10.56
2019-04-06T04:43:08.894Z,10.46
2019-04-06T04:44:08.790Z,10.56
2019-04-06T04:45:08.769Z,10.60
2019-04-06T04:46:08.767Z,10.59
2019-04-06T04:47:08.830Z,10.59
2019-04-06T04:48:08.891Z,10.53
2019-04-06T04:49:08.756Z,10.48
2019-04-06T04:50:08.750Z,10.59
2019-04-06T04:51:08.710Z,10.59
2019-04-06T04:52:08.766Z,10.54
2019-04-06T04:53:08.746Z,10.59
2019-04-06T04:54:08.677Z,10.61
2019-04-06T04:55:08.674Z,10.60
2019-04-06T04:56:08.678Z,10.61
2019-04-06T04:57:08.644Z,10.59
2019-04-06T04:58:08.676Z,10.59
2019-04-06T04:59:08.707Z,10.74
2019-04-06T05:00:08.614Z,10.68
2019-04-06T05:01:08.628Z,10.72
2019-04-06T05:02:08.592Z,10.71
2019-04-06T05:03:08.599Z,10.87
2019-04-06T05:04:08.705Z,10.86
2019-04-06T05:05:09.696Z,10.87
2019-04-06T05:06:08.548Z,10.87
2019-04-06T05:07:08.525Z,10.86
2019-04-06T05:08:08.526Z,10.82
2019-04-06T05:09:08.506Z,10.92
2019-04-06T05:10:08.598Z,10.97
2019-04-06T05:11:08.555Z,10.99
2019-04-06T05:12:08.482Z,10.96
2019-04-06T05:13:08.479Z,11.08
2019-04-06T05:14:08.450Z,11.12
2019-04-06T05:15:08.457Z,11.17
2019-04-06T05:16:08.514Z,11.22
2019-04-06T05:17:08.416Z,11.30
2019-04-06T05:18:08.409Z,11.29
2019-04-06T05:19:08.402Z,11.29
2019-04-06T05:20:08.385Z,11.33
2019-04-06T05:21:08.377Z,11.43
2019-04-06T05:22:08.454Z,11.44
2019-04-06T05:23:08.360Z,11.50
2019-04-06T05:24:08.465Z,11.59
2019-04-06T05:25:08.339Z,11.55
2019-04-06T05:26:08.327Z,11.68
2019-04-06T05:27:08.322Z,11.72
2019-04-06T05:28:08.362Z,11.78
2019-04-06T05:29:08.294Z,11.77
2019-04-06T05:30:08.274Z,11.88
2019-04-06T05:31:08.260Z,11.84
2019-04-06T05:32:08.301Z,11.97
2019-04-06T05:33:08.240Z,12.02
2019-04-06T05:34:08.300Z,12.04
2019-04-06T05:35:08.250Z,12.07
2019-04-06T05:36:08.533Z,12.15
2019-04-06T05:37:08.307Z,12.27
2019-04-06T05:38:08.338Z,12.32
2019-04-06T05:39:08.443Z,12.39
2019-04-06T05:40:08.165Z,12.39
2019-04-06T05:41:08.160Z,12.42
2019-04-06T05:42:08.388Z,12.47
2019-04-06T05:43:08.196Z,12.53
2019-04-06T05:44:08.254Z,12.49
2019-04-06T05:45:08.104Z,12.54
2019-04-06T05:46:08.118Z,12.67
2019-04-06T05:47:08.092Z,12.79
2019-04-06T05:48:08.103Z,12.76
2019-04-06T05:49:08.093Z,12.83
2019-04-06T05:50:08.140Z,12.94
2019-04-06T05:51:08.101Z,13.01
2019-04-06T05:52:08.038Z,13.04
2019-04-06T05:53:08.019Z,13.13
2019-04-06T05:54:08.011Z,13.31
2019-04-06T05:55:08.176Z,13.47
2019-04-06T05:56:08.041Z,13.50
2019-04-06T05:57:07.986Z,13.53
2019-04-06T05:58:10.603Z,13.74
2019-04-06T05:59:10.050Z,13.86
2019-04-06T06:00:10.506Z,13.96
2019-04-06T06:01:10.254Z,14.15
2019-04-06T06:02:09.934Z,14.50
2019-04-06T06:03:08.588Z,14.69
2019-04-06T06:04:08.819Z,14.91
2019-04-06T06:05:08.615Z,14.91
2019-04-06T06:06:07.968Z,15.03
2019-04-06T06:07:07.938Z,15.15
2019-04-06T06:08:07.900Z,15.29
2019-04-06T06:09:07.851Z,15.31
2019-04-06T06:10:07.830Z,15.19
2019-04-06T06:11:07.821Z,15.43
2019-04-06T06:12:07.890Z,15.67
2019-04-06T06:13:07.805Z,15.97
2019-04-06T06:14:07.786Z,16.13
2019-04-06T06:15:07.794Z,16.35
2019-04-06T06:16:07.803Z,16.51
2019-04-06T06:17:07.812Z,16.81
2019-04-06T06:18:07.743Z,16.89
2019-04-06T06:19:07.724Z,17.02
2019-04-06T06:20:07.721Z,17.09
2019-04-06T06:21:07.702Z,17.20
2019-04-06T06:22:07.697Z,17.27
2019-04-06T06:23:07.753Z,17.51
2019-04-06T06:24:07.788Z,17.76
2019-04-06T06:25:07.680Z,17.85
2019-04-06T06:26:07.655Z,17.79
2019-04-06T06:27:07.645Z,18.05
2019-04-06T06:28:14.223Z,18.26
2019-04-06T06:29:08.633Z,18.47
2019-04-06T06:30:07.763Z,18.75
2019-04-06T06:31:07.605Z,18.93
2019-04-06T06:32:07.587Z,19.09
2019-04-06T06:33:07.586Z,19.04
2019-04-06T06:34:07.640Z,18.98
2019-04-06T06:35:07.573Z,19.19
2019-04-06T06:36:07.569Z,19.56
2019-04-06T06:37:07.526Z,19.81
2019-04-06T06:38:07.532Z,19.84
2019-04-06T06:39:07.516Z,19.81
2019-04-06T06:40:07.734Z,19.82
2019-04-06T06:41:07.606Z,20.06
2019-04-06T06:42:07.485Z,20.13
2019-04-06T06:43:07.479Z,19.70
2019-04-06T06:44:07.460Z,19.29
2019-04-06T06:45:07.664Z,19.11
2019-04-06T06:46:07.930Z,18.23
2019-04-06T06:47:07.552Z,17.49
2019-04-06T06:48:07.417Z,17.08
2019-04-06T06:49:07.435Z,17.23
2019-04-06T06:50:07.382Z,17.85
2019-04-06T06:51:07.430Z,18.78
2019-04-06T06:52:07.501Z,19.22
2019-04-06T06:53:07.349Z,19.45
2019-04-06T06:54:07.564Z,19.88
2019-04-06T06:55:07.356Z,20.37
2019-04-06T06:56:07.315Z,21.17
2019-04-06T06:57:07.592Z,22.11
2019-04-06T06:58:07.313Z,22.48
2019-04-06T06:59:07.315Z,22.93
2019-04-06T07:00:07.268Z,23.20
2019-04-06T07:01:07.328Z,23.54
2019-04-06T07:02:07.340Z,24.16
2019-04-06T07:03:07.361Z,24.53
2019-04-06T07:04:07.274Z,25.17
2019-04-06T07:05:07.260Z,25.72
2019-04-06T07:06:07.223Z,26.16
2019-04-06T07:07:07.335Z,26.31
2019-04-06T07:08:07.340Z,26.00
2019-04-06T07:09:07.291Z,25.98
2019-04-06T07:10:07.276Z,26.38
2019-04-06T07:11:07.352Z,26.73
2019-04-06T07:12:07.541Z,26.60
2019-04-06T07:13:07.351Z,26.43
2019-04-06T07:14:07.367Z,26.40
2019-04-06T07:15:07.250Z,26.16
2019-04-06T07:16:07.434Z,25.98
2019-04-06T07:17:07.243Z,25.81
2019-04-06T07:18:07.571Z,26.28
2019-04-06T07:19:07.219Z,26.59
2019-04-06T07:20:07.229Z,27.17
2019-04-06T07:21:07.221Z,26.85
2019-04-06T07:22:07.216Z,26.75
2019-04-06T07:23:07.200Z,26.44
2019-04-06T07:24:07.509Z,26.53
2019-04-06T07:25:07.229Z,26.52
2019-04-06T07:26:07.191Z,26.80
2019-04-06T07:27:07.187Z,26.58
2019-04-06T07:28:07.082Z,26.80
2019-04-06T07:29:07.319Z,27.14
2019-04-06T07:30:06.964Z,27.37
2019-04-06T07:31:07.598Z,27.71
2019-04-06T07:32:06.918Z,28.45
2019-04-06T07:33:06.904Z,28.86
2019-04-06T07:34:06.954Z,28.84
2019-04-06T07:35:06.951Z,28.76
2019-04-06T07:36:06.875Z,28.57
2019-04-06T07:37:07.069Z,28.39
2019-04-06T07:38:09.643Z,27.98
2019-04-06T07:39:07.020Z,27.68
2019-04-06T07:40:06.899Z,27.92
2019-04-06T07:41:06.829Z,28.62
2019-04-06T07:42:06.811Z,29.29
2019-04-06T07:43:06.902Z,29.87
2019-04-06T07:44:06.803Z,30.40
2019-04-06T07:45:06.844Z,30.69
2019-04-06T07:46:07.589Z,31.15
2019-04-06T07:47:07.193Z,31.54
2019-04-06T07:48:07.627Z,31.94
2019-04-06T07:49:09.608Z,31.77
2019-04-06T07:50:07.101Z,31.81
2019-04-06T07:51:06.902Z,31.76
2019-04-06T07:52:06.788Z,31.64
2019-04-06T07:53:06.787Z,31.05
2019-04-06T07:54:07.191Z,30.63
2019-04-06T07:55:06.908Z,30.87
2019-04-06T07:56:06.762Z,31.00
2019-04-06T07:57:06.679Z,30.84
2019-04-06T07:58:06.830Z,30.78
2019-04-06T07:59:06.658Z,30.83
2019-04-06T08:00:06.761Z,31.33
2019-04-06T08:01:06.598Z,32.18
2019-04-06T08:02:06.581Z,32.83
2019-04-06T08:03:06.581Z,32.73
2019-04-06T08:04:06.581Z,32.36
2019-04-06T08:05:06.965Z,32.80
2019-04-06T08:06:06.608Z,33.43
2019-04-06T08:07:06.587Z,33.42
2019-04-06T08:08:06.518Z,33.92
2019-04-06T08:09:06.593Z,33.99
2019-04-06T08:10:06.560Z,33.74
2019-04-06T08:11:06.508Z,33.80
2019-04-06T08:12:06.503Z,33.79
2019-04-06T08:13:06.463Z,33.42
2019-04-06T08:14:06.460Z,33.07
2019-04-06T08:15:06.541Z,32.93
2019-04-06T08:16:06.451Z,33.39
2019-04-06T08:17:06.496Z,33.96
2019-04-06T08:18:06.421Z,33.84
2019-04-06T08:19:06.400Z,34.45
2019-04-06T08:20:06.394Z,34.16
2019-04-06T08:21:06.409Z,34.05
2019-04-06T08:22:06.376Z,34.18
2019-04-06T08:23:06.618Z,34.18
2019-04-06T08:24:06.354Z,33.95
2019-04-06T08:25:06.330Z,34.50
2019-04-06T08:26:06.392Z,35.10
2019-04-06T08:27:06.321Z,35.51
2019-04-06T08:28:06.340Z,35.89
2019-04-06T08:29:06.292Z,36.08
2019-04-06T08:30:06.293Z,36.42
2019-04-06T08:31:06.457Z,35.90
2019-04-06T08:32:06.488Z,35.56
2019-04-06T08:33:06.265Z,34.90
2019-04-06T08:34:06.269Z,34.95
2019-04-06T08:35:06.228Z,35.51
2019-04-06T08:36:06.237Z,35.90
2019-04-06T08:37:06.259Z,35.68
2019-04-06T08:38:06.197Z,36.09
2019-04-06T08:39:06.197Z,36.33
2019-04-06T08:40:06.369Z,36.92
2019-04-06T08:41:06.168Z,37.11
2019-04-06T08:42:06.206Z,37.49
2019-04-06T08:43:06.277Z,37.56
2019-04-06T08:44:06.162Z,37.53
2019-04-06T08:45:06.172Z,37.13
2019-04-06T08:46:06.239Z,36.81
2019-04-06T08:47:06.260Z,36.95
2019-04-06T08:48:06.104Z,37.30
2019-04-06T08:49:06.275Z,37.29
2019-04-06T08:50:06.070Z,37.29
2019-04-06T08:51:06.104Z,37.40
2019-04-06T08:52:06.072Z,37.29
2019-04-06T08:53:06.041Z,36.77
2019-04-06T08:54:06.033Z,36.67
2019-04-06T08:55:06.134Z,36.43
2019-04-06T08:56:06.008Z,36.14
2019-04-06T08:57:06.104Z,36.05
2019-04-06T08:58:05.984Z,36.00
2019-04-06T08:59:11.277Z,35.90
2019-04-06T09:00:07.407Z,36.40
2019-04-06T09:01:05.950Z,36.61
2019-04-06T09:02:05.981Z,36.72
2019-04-06T09:03:05.952Z,36.67
2019-04-06T09:04:06.017Z,36.76
2019-04-06T09:05:06.125Z,36.65
2019-04-06T09:06:05.904Z,36.35
2019-04-06T09:07:06.166Z,36.30
2019-04-06T09:08:05.894Z,36.39
2019-04-06T09:09:05.881Z,35.92
2019-04-06T09:10:05.864Z,36.02
2019-04-06T09:11:05.958Z,35.90
2019-04-06T09:12:05.903Z,36.14
2019-04-06T09:13:05.917Z,36.33
2019-04-06T09:14:06.314Z,36.40
2019-04-06T09:15:05.884Z,36.96
2019-04-06T09:16:06.307Z,36.52
2019-04-06T09:17:05.804Z,36.07
2019-04-06T09:18:05.840Z,36.52
2019-04-06T09:19:05.779Z,37.30
2019-04-06T09:20:05.774Z,36.62
2019-04-06T09:21:06.067Z,36.02
2019-04-06T09:22:05.734Z,36.27
2019-04-06T09:23:05.739Z,36.42
2019-04-06T09:24:05.827Z,35.71
2019-04-06T09:25:05.707Z,35.29
2019-04-06T09:26:05.723Z,34.71
2019-04-06T09:27:05.731Z,35.41
2019-04-06T09:28:05.767Z,36.42
2019-04-06T09:29:05.694Z,36.89
2019-04-06T09:30:05.912Z,36.65
2019-04-06T09:31:05.651Z,37.14
2019-04-06T09:32:05.640Z,37.36
2019-04-06T09:33:05.638Z,37.14
2019-04-06T09:34:05.768Z,37.25
2019-04-06T09:35:05.607Z,37.53
2019-04-06T09:36:05.732Z,36.93
2019-04-06T09:37:06.124Z,35.58
2019-04-06T09:38:05.573Z,35.85
2019-04-06T09:39:05.625Z,36.25
2019-04-06T09:40:05.556Z,36.45
2019-04-06T09:41:05.582Z,36.39
2019-04-06T09:42:05.537Z,36.49
2019-04-06T09:43:05.526Z,36.58
2019-04-06T09:44:05.576Z,36.36
2019-04-06T09:45:05.503Z,35.90
2019-04-06T09:46:05.638Z,36.33
2019-04-06T09:47:05.487Z,36.49
2019-04-06T09:48:05.596Z,37.14
2019-04-06T09:49:05.707Z,37.40
2019-04-06T09:50:05.491Z,37.64
2019-04-06T09:51:05.496Z,38.14
2019-04-06T09:52:05.785Z,38.30
2019-04-06T09:53:05.509Z,38.28
2019-04-06T09:54:07.184Z,38.42
2019-04-06T09:55:05.401Z,38.74
2019-04-06T09:56:05.393Z,39.30
2019-04-06T09:57:05.494Z,39.30
2019-04-06T09:58:05.388Z,39.48
2019-04-06T09:59:05.458Z,39.24
2019-04-06T10:00:05.352Z,39.00
2019-04-06T10:01:05.379Z,39.00
2019-04-06T10:02:05.444Z,38.82
2019-04-06T10:03:05.665Z,38.77
2019-04-06T10:04:05.344Z,37.59
2019-04-06T10:05:05.325Z,37.28
2019-04-06T10:06:05.605Z,37.70
2019-04-06T10:07:05.350Z,38.49
2019-04-06T10:08:05.443Z,38.38
2019-04-06T10:09:05.283Z,37.11
2019-04-06T10:10:05.257Z,36.14
2019-04-06T10:11:05.254Z,35.68
2019-04-06T10:12:05.470Z,36.16
2019-04-06T10:13:05.275Z,36.31
2019-04-06T10:14:05.309Z,36.62
2019-04-06T10:15:05.221Z,37.32
2019-04-06T10:16:05.436Z,37.58
2019-04-06T10:17:05.188Z,38.15
2019-04-06T10:18:05.187Z,38.14
2019-04-06T10:19:05.158Z,38.05
2019-04-06T10:20:05.247Z,38.43
2019-04-06T10:21:05.185Z,38.40
2019-04-06T10:22:05.194Z,38.69
2019-04-06T10:23:05.132Z,38.09
2019-04-06T10:24:05.101Z,37.74
2019-04-06T10:25:05.201Z,38.28
2019-04-06T10:26:05.344Z,37.93
2019-04-06T10:27:05.073Z,37.75
2019-04-06T10:28:05.063Z,38.12
2019-04-06T10:29:05.171Z,38.58
2019-04-06T10:30:05.047Z,38.55
2019-04-06T10:31:05.139Z,37.93
2019-04-06T10:32:05.030Z,38.20
2019-04-06T10:33:05.018Z,37.93
2019-04-06T10:34:05.023Z,37.92
2019-04-06T10:35:05.076Z,37.96
2019-04-06T10:36:05.010Z,38.28
2019-04-06T10:37:05.047Z,38.21
2019-04-06T10:38:04.962Z,38.54
2019-04-06T10:39:04.991Z,38.27
2019-04-06T10:40:05.241Z,38.14
2019-04-06T10:41:05.085Z,38.31
2019-04-06T10:42:05.203Z,38.73
2019-04-06T10:43:05.383Z,38.65
2019-04-06T10:44:04.904Z,38.79
2019-04-06T10:45:05.063Z,38.05
2019-04-06T10:46:04.989Z,37.67
2019-04-06T10:47:04.944Z,37.32
2019-04-06T10:48:04.875Z,37.67
2019-04-06T10:49:04.936Z,37.68
2019-04-06T10:50:04.852Z,37.77
2019-04-06T10:51:04.941Z,36.74
2019-04-06T10:52:04.824Z,36.33
2019-04-06T10:53:04.824Z,35.93
2019-04-06T10:54:05.172Z,35.56
2019-04-06T10:55:04.796Z,35.80
2019-04-06T10:56:04.794Z,35.30
2019-04-06T10:57:04.783Z,34.95
2019-04-06T10:58:04.875Z,35.37
2019-04-06T10:59:04.883Z,36.02
2019-04-06T11:00:04.770Z,36.68
2019-04-06T11:01:04.740Z,37.10
2019-04-06T11:02:04.809Z,37.68
2019-04-06T11:03:04.718Z,37.77
2019-04-06T11:04:04.702Z,37.89
2019-04-06T11:05:04.707Z,37.90
2019-04-06T11:06:04.719Z,38.01
2019-04-06T11:07:04.677Z,37.90
2019-04-06T11:08:04.967Z,37.90
2019-04-06T11:09:28.198Z,37.36
2019-04-06T11:10:04.666Z,36.54
2019-04-06T11:11:04.654Z,36.24
2019-04-06T11:12:04.665Z,35.68
2019-04-06T11:13:04.619Z,35.56
2019-04-06T11:14:04.677Z,35.19
2019-04-06T11:15:04.622Z,35.26
2019-04-06T11:16:04.804Z,36.01
2019-04-06T11:17:04.660Z,36.24
2019-04-06T11:18:04.594Z,36.14
2019-04-06T11:19:04.633Z,36.46
2019-04-06T11:20:04.556Z,36.39
2019-04-06T11:21:04.551Z,36.92
2019-04-06T11:22:04.629Z,37.23
2019-04-06T11:23:04.537Z,37.28
2019-04-06T11:24:04.746Z,37.28
2019-04-06T11:25:04.524Z,37.37
2019-04-06T11:26:04.512Z,37.13
2019-04-06T11:27:04.800Z,36.51
2019-04-06T11:28:04.578Z,36.21
2019-04-06T11:29:04.479Z,36.09
2019-04-06T11:30:13.177Z,35.92
2019-04-06T11:31:05.445Z,36.51
2019-04-06T11:32:04.473Z,36.73
2019-04-06T11:33:04.832Z,36.64
2019-04-06T11:34:04.425Z,36.43
2019-04-06T11:35:04.729Z,36.59
2019-04-06T11:36:04.422Z,36.79
2019-04-06T11:37:04.408Z,36.25
2019-04-06T11:38:04.458Z,36.27
2019-04-06T11:39:04.367Z,36.49
2019-04-06T11:40:04.370Z,36.61
2019-04-06T11:41:04.364Z,37.13
2019-04-06T11:42:04.428Z,37.55
2019-04-06T11:43:04.380Z,37.06
2019-04-06T11:44:04.382Z,36.07
2019-04-06T11:45:04.312Z,34.99
2019-04-06T11:46:04.308Z,35.18
2019-04-06T11:47:04.530Z,35.52
2019-04-06T11:48:04.407Z,35.53
2019-04-06T11:49:04.431Z,35.56
2019-04-06T11:50:04.305Z,35.66
2019-04-06T11:51:04.268Z,35.93
2019-04-06T11:52:04.371Z,35.74
2019-04-06T11:53:04.243Z,35.64
2019-04-06T11:54:04.309Z,35.30
2019-04-06T11:55:04.317Z,35.49
2019-04-06T11:56:04.207Z,35.64
2019-04-06T11:57:04.447Z,36.01
2019-04-06T11:58:04.327Z,36.31
2019-04-06T11:59:04.181Z,36.58
2019-04-06T12:00:04.167Z,36.18
2019-04-06T12:01:04.296Z,36.31
2019-04-06T12:02:04.298Z,36.14
2019-04-06T12:03:04.197Z,35.46
2019-04-06T12:04:04.131Z,35.46
2019-04-06T12:05:04.718Z,34.96
2019-04-06T12:06:04.111Z,34.99
2019-04-06T12:07:04.330Z,34.62
2019-04-06T12:08:04.147Z,34.27
2019-04-06T12:09:04.070Z,33.64
2019-04-06T12:10:04.066Z,33.94
2019-04-06T12:11:04.319Z,34.38
2019-04-06T12:12:04.062Z,34.97
2019-04-06T12:13:04.384Z,34.47
2019-04-06T12:14:04.371Z,33.94
2019-04-06T12:15:04.109Z,34.14
2019-04-06T12:16:04.006Z,34.27
2019-04-06T12:17:04.604Z,33.90
2019-04-06T12:18:03.985Z,33.79
2019-04-06T12:19:04.041Z,33.77
2019-04-06T12:20:04.195Z,33.62
2019-04-06T12:21:03.983Z,33.77
2019-04-06T12:22:04.125Z,34.02
2019-04-06T12:23:03.936Z,33.90
2019-04-06T12:24:03.961Z,34.23
2019-04-06T12:25:04.015Z,34.17
2019-04-06T12:26:03.919Z,34.55
2019-04-06T12:27:04.060Z,34.71
2019-04-06T12:28:04.191Z,34.45
2019-04-06T12:29:04.317Z,34.55
2019-04-06T12:30:04.110Z,34.93
2019-04-06T12:31:04.137Z,35.11
2019-04-06T12:32:03.862Z,34.55
2019-04-06T12:33:03.910Z,33.79
2019-04-06T12:34:03.829Z,33.55
2019-04-06T12:35:04.156Z,33.45
2019-04-06T12:36:03.887Z,33.17
2019-04-06T12:37:03.828Z,32.92
2019-04-06T12:38:03.793Z,32.45
2019-04-06T12:39:03.879Z,32.53
2019-04-06T12:40:03.798Z,32.08
2019-04-06T12:41:03.814Z,32.16
2019-04-06T12:42:03.832Z,32.49
2019-04-06T12:43:03.995Z,32.43
2019-04-06T12:44:03.742Z,32.38
2019-04-06T12:45:03.808Z,31.96
2019-04-06T12:46:03.726Z,31.42
2019-04-06T12:47:04.035Z,31.14
2019-04-06T12:48:03.905Z,31.18
2019-04-06T12:49:03.689Z,31.31
2019-04-06T12:50:03.855Z,30.99
2019-04-06T12:51:04.872Z,31.51
2019-04-06T12:52:03.926Z,31.49